sensor_id;sensor_type;location;lat;lon;timestamp;P1;durP1;ratioP1;P2;durP2;ratioP2
13588;SDS011;6865;52.552;13.434;2023-05-07T00:01:21;12.60;;;10.30;;
13588;SDS011;6865;52.552;13.434;2023-05-07T00:03:48;12.20;;;10.30;;
13588;SDS011;6865;52.552;13.434;2023-05-07T00:06:15;12.13;;;9.90;;
13588;SDS011;6865;52.552;13.434;2023-05-07T00:08:41;13.20;;;10.63;;
13588;SDS011;6865;52.552;13.434;2023-05-07T00:11:08;12.90;;;10.30;;
13588;SDS011;6865;52.552;13.434;2023-05-07T00:13:34;15.23;;;10.60;;
13588;SDS011;6865;52.552;13.434;2023-05-07T00:16:02;13.33;;;10.87;;
13588;SDS011;6865;52.552;13.434;2023-05-07T00:18:29;12.70;;;10.00;;
13588;SDS011;6865;52.552;13.434;2023-05-07T00:20:56;14.30;;;10.80;;
13588;SDS011;6865;52.552;13.434;2023-05-07T00:23:22;12.43;;;9.97;;
13588;SDS011;6865;52.552;13.434;2023-05-07T00:25:49;11.93;;;10.37;;
13588;SDS011;6865;52.552;13.434;2023-05-07T00:28:16;14.47;;;10.73;;
13588;SDS011;6865;52.552;13.434;2023-05-07T00:30:42;13.40;;;10.70;;
13588;SDS011;6865;52.552;13.434;2023-05-07T00:33:09;13.47;;;10.67;;
13588;SDS011;6865;52.552;13.434;2023-05-07T00:35:36;14.30;;;11.57;;
13588;SDS011;6865;52.552;13.434;2023-05-07T00:38:02;11.50;;;9.77;;
13588;SDS011;6865;52.552;13.434;2023-05-07T00:40:29;13.03;;;10.60;;
13588;SDS011;6865;52.552;13.434;2023-05-07T00:42:56;12.07;;;10.63;;
13588;SDS011;6865;52.552;13.434;2023-05-07T00:45:26;13.23;;;10.43;;
13588;SDS011;6865;52.552;13.434;2023-05-07T00:47:57;12.80;;;9.73;;
13588;SDS011;6865;52.552;13.434;2023-05-07T00:50:28;12.03;;;10.47;;
13588;SDS011;6865;52.552;13.434;2023-05-07T00:52:56;12.00;;;10.10;;
13588;SDS011;6865;52.552;13.434;2023-05-07T00:55:23;11.27;;;9.97;;
13588;SDS011;6865;52.552;13.434;2023-05-07T00:57:50;11.20;;;9.90;;
13588;SDS011;6865;52.552;13.434;2023-05-07T01:02:50;11.00;;;9.70;;
13588;SDS011;6865;52.552;13.434;2023-05-07T01:05:18;11.80;;;9.73;;
13588;SDS011;6865;52.552;13.434;2023-05-07T01:07:49;14.60;;;10.43;;
13588;SDS011;6865;52.552;13.434;2023-05-07T01:10:16;12.37;;;9.70;;
13588;SDS011;6865;52.552;13.434;2023-05-07T01:12:43;12.13;;;10.33;;
13588;SDS011;6865;52.552;13.434;2023-05-07T01:15:12;15.37;;;10.40;;
13588;SDS011;6865;52.552;13.434;2023-05-07T01:17:40;13.03;;;10.20;;
13588;SDS011;6865;52.552;13.434;2023-05-07T01:20:08;12.90;;;9.83;;
13588;SDS011;6865;52.552;13.434;2023-05-07T01:22:37;14.47;;;10.03;;
13588;SDS011;6865;52.552;13.434;2023-05-07T01:25:04;12.37;;;10.07;;
13588;SDS011;6865;52.552;13.434;2023-05-07T01:27:33;13.27;;;9.70;;
13588;SDS011;6865;52.552;13.434;2023-05-07T01:30:01;14.13;;;10.67;;
13588;SDS011;6865;52.552;13.434;2023-05-07T01:32:45;11.33;;;9.83;;
13588;SDS011;6865;52.552;13.434;2023-05-07T01:35:28;13.67;;;10.37;;
13588;SDS011;6865;52.552;13.434;2023-05-07T01:38:07;11.93;;;10.17;;
13588;SDS011;6865;52.552;13.434;2023-05-07T01:40:34;12.97;;;10.70;;
13588;SDS011;6865;52.552;13.434;2023-05-07T01:43:01;13.30;;;10.33;;
13588;SDS011;6865;52.552;13.434;2023-05-07T01:45:30;11.67;;;9.63;;
13588;SDS011;6865;52.552;13.434;2023-05-07T01:48:01;11.17;;;9.77;;
13588;SDS011;6865;52.552;13.434;2023-05-07T01:50:29;10.00;;;8.97;;
13588;SDS011;6865;52.552;13.434;2023-05-07T01:52:57;9.67;;;8.60;;
13588;SDS011;6865;52.552;13.434;2023-05-07T01:55:24;10.57;;;9.30;;
13588;SDS011;6865;52.552;13.434;2023-05-07T01:57:51;12.03;;;9.83;;
13588;SDS011;6865;52.552;13.434;2023-05-07T02:00:17;9.87;;;8.87;;
13588;SDS011;6865;52.552;13.434;2023-05-07T02:02:45;14.23;;;10.03;;
13588;SDS011;6865;52.552;13.434;2023-05-07T02:05:11;11.10;;;9.50;;
13588;SDS011;6865;52.552;13.434;2023-05-07T02:07:38;13.10;;;10.37;;
13588;SDS011;6865;52.552;13.434;2023-05-07T02:10:05;13.00;;;9.20;;
13588;SDS011;6865;52.552;13.434;2023-05-07T02:12:32;13.07;;;9.83;;
13588;SDS011;6865;52.552;13.434;2023-05-07T02:14:59;10.90;;;9.33;;
13588;SDS011;6865;52.552;13.434;2023-05-07T02:17:26;11.87;;;9.43;;
13588;SDS011;6865;52.552;13.434;2023-05-07T02:19:53;13.37;;;10.00;;
13588;SDS011;6865;52.552;13.434;2023-05-07T02:22:19;11.27;;;9.50;;
13588;SDS011;6865;52.552;13.434;2023-05-07T02:24:46;14.50;;;9.80;;
13588;SDS011;6865;52.552;13.434;2023-05-07T02:27:12;12.43;;;9.60;;
13588;SDS011;6865;52.552;13.434;2023-05-07T02:29:39;10.83;;;9.37;;
13588;SDS011;6865;52.552;13.434;2023-05-07T02:32:06;13.00;;;9.70;;
13588;SDS011;6865;52.552;13.434;2023-05-07T02:34:32;10.20;;;9.00;;
13588;SDS011;6865;52.552;13.434;2023-05-07T02:36:59;10.33;;;9.03;;
13588;SDS011;6865;52.552;13.434;2023-05-07T02:39:26;12.67;;;9.93;;
13588;SDS011;6865;52.552;13.434;2023-05-07T02:41:52;14.50;;;10.50;;
13588;SDS011;6865;52.552;13.434;2023-05-07T02:44:19;10.20;;;9.10;;
13588;SDS011;6865;52.552;13.434;2023-05-07T02:46:45;10.73;;;9.10;;
13588;SDS011;6865;52.552;13.434;2023-05-07T02:49:12;10.73;;;9.20;;
13588;SDS011;6865;52.552;13.434;2023-05-07T02:51:38;10.90;;;9.03;;
13588;SDS011;6865;52.552;13.434;2023-05-07T02:54:05;11.40;;;9.50;;
13588;SDS011;6865;52.552;13.434;2023-05-07T02:56:32;9.60;;;8.70;;
13588;SDS011;6865;52.552;13.434;2023-05-07T02:58:59;11.97;;;8.60;;
13588;SDS011;6865;52.552;13.434;2023-05-07T03:01:26;9.40;;;8.50;;
13588;SDS011;6865;52.552;13.434;2023-05-07T03:03:53;12.70;;;8.83;;
13588;SDS011;6865;52.552;13.434;2023-05-07T03:06:20;10.70;;;8.83;;
13588;SDS011;6865;52.552;13.434;2023-05-07T03:08:47;11.47;;;8.43;;
13588;SDS011;6865;52.552;13.434;2023-05-07T03:11:13;11.30;;;8.40;;
13588;SDS011;6865;52.552;13.434;2023-05-07T03:13:41;9.27;;;8.27;;
13588;SDS011;6865;52.552;13.434;2023-05-07T03:16:07;9.83;;;7.90;;
13588;SDS011;6865;52.552;13.434;2023-05-07T03:18:34;9.57;;;7.73;;
13588;SDS011;6865;52.552;13.434;2023-05-07T03:21:00;10.57;;;8.63;;
13588;SDS011;6865;52.552;13.434;2023-05-07T03:23:27;11.27;;;7.87;;
13588;SDS011;6865;52.552;13.434;2023-05-07T03:25:54;11.83;;;8.80;;
13588;SDS011;6865;52.552;13.434;2023-05-07T03:28:20;9.93;;;8.60;;
13588;SDS011;6865;52.552;13.434;2023-05-07T03:30:47;12.97;;;8.40;;
13588;SDS011;6865;52.552;13.434;2023-05-07T03:33:14;9.20;;;8.30;;
13588;SDS011;6865;52.552;13.434;2023-05-07T03:35:40;13.23;;;8.80;;
13588;SDS011;6865;52.552;13.434;2023-05-07T03:38:07;9.53;;;8.37;;
13588;SDS011;6865;52.552;13.434;2023-05-07T03:40:33;9.87;;;7.90;;
13588;SDS011;6865;52.552;13.434;2023-05-07T03:43:00;9.77;;;8.30;;
13588;SDS011;6865;52.552;13.434;2023-05-07T03:45:27;9.90;;;7.87;;
13588;SDS011;6865;52.552;13.434;2023-05-07T03:47:54;9.17;;;7.93;;
13588;SDS011;6865;52.552;13.434;2023-05-07T03:50:20;9.47;;;8.03;;
13588;SDS011;6865;52.552;13.434;2023-05-07T03:52:47;10.33;;;8.10;;
13588;SDS011;6865;52.552;13.434;2023-05-07T03:55:14;10.07;;;7.77;;
13588;SDS011;6865;52.552;13.434;2023-05-07T03:57:40;8.93;;;7.80;;
13588;SDS011;6865;52.552;13.434;2023-05-07T04:00:07;9.10;;;7.80;;
13588;SDS011;6865;52.552;13.434;2023-05-07T04:02:35;9.27;;;7.87;;
13588;SDS011;6865;52.552;13.434;2023-05-07T04:05:02;10.80;;;7.57;;
13588;SDS011;6865;52.552;13.434;2023-05-07T04:07:28;11.63;;;7.57;;
13588;SDS011;6865;52.552;13.434;2023-05-07T04:09:55;10.33;;;8.17;;
13588;SDS011;6865;52.552;13.434;2023-05-07T04:12:21;11.07;;;8.30;;
13588;SDS011;6865;52.552;13.434;2023-05-07T04:14:48;9.13;;;7.57;;
13588;SDS011;6865;52.552;13.434;2023-05-07T04:17:14;9.90;;;7.87;;
13588;SDS011;6865;52.552;13.434;2023-05-07T04:19:41;8.90;;;7.90;;
13588;SDS011;6865;52.552;13.434;2023-05-07T04:22:11;9.23;;;7.60;;
13588;SDS011;6865;52.552;13.434;2023-05-07T04:24:38;10.80;;;7.60;;
13588;SDS011;6865;52.552;13.434;2023-05-07T04:27:04;8.83;;;7.43;;
13588;SDS011;6865;52.552;13.434;2023-05-07T04:29:32;9.20;;;7.60;;
13588;SDS011;6865;52.552;13.434;2023-05-07T04:31:59;8.93;;;7.60;;
13588;SDS011;6865;52.552;13.434;2023-05-07T04:34:25;9.63;;;7.37;;
13588;SDS011;6865;52.552;13.434;2023-05-07T04:36:52;12.30;;;8.00;;
13588;SDS011;6865;52.552;13.434;2023-05-07T04:39:19;9.00;;;8.10;;
13588;SDS011;6865;52.552;13.434;2023-05-07T04:41:46;7.73;;;6.87;;
13588;SDS011;6865;52.552;13.434;2023-05-07T04:44:13;9.17;;;7.37;;
13588;SDS011;6865;52.552;13.434;2023-05-07T04:46:40;8.87;;;7.60;;
13588;SDS011;6865;52.552;13.434;2023-05-07T04:49:07;9.07;;;7.23;;
13588;SDS011;6865;52.552;13.434;2023-05-07T04:51:33;8.27;;;7.17;;
13588;SDS011;6865;52.552;13.434;2023-05-07T04:54:00;8.07;;;6.23;;
13588;SDS011;6865;52.552;13.434;2023-05-07T04:56:29;8.73;;;7.13;;
13588;SDS011;6865;52.552;13.434;2023-05-07T04:58:56;9.20;;;6.83;;
13588;SDS011;6865;52.552;13.434;2023-05-07T05:01:23;7.90;;;6.50;;
13588;SDS011;6865;52.552;13.434;2023-05-07T05:03:49;8.70;;;6.57;;
13588;SDS011;6865;52.552;13.434;2023-05-07T05:06:16;7.30;;;6.23;;
13588;SDS011;6865;52.552;13.434;2023-05-07T05:08:43;9.13;;;6.70;;
13588;SDS011;6865;52.552;13.434;2023-05-07T05:11:09;9.80;;;6.50;;
13588;SDS011;6865;52.552;13.434;2023-05-07T05:13:36;9.57;;;6.37;;
13588;SDS011;6865;52.552;13.434;2023-05-07T05:16:03;8.43;;;6.57;;
13588;SDS011;6865;52.552;13.434;2023-05-07T05:18:30;7.10;;;6.00;;
13588;SDS011;6865;52.552;13.434;2023-05-07T05:20:57;9.17;;;6.37;;
13588;SDS011;6865;52.552;13.434;2023-05-07T05:23:23;7.33;;;5.80;;
13588;SDS011;6865;52.552;13.434;2023-05-07T05:25:50;7.70;;;6.40;;
13588;SDS011;6865;52.552;13.434;2023-05-07T05:28:22;7.80;;;6.27;;
13588;SDS011;6865;52.552;13.434;2023-05-07T05:30:49;11.10;;;7.40;;
13588;SDS011;6865;52.552;13.434;2023-05-07T05:33:16;7.90;;;6.70;;
13588;SDS011;6865;52.552;13.434;2023-05-07T05:35:42;8.03;;;6.27;;
13588;SDS011;6865;52.552;13.434;2023-05-07T05:38:09;9.20;;;6.50;;
13588;SDS011;6865;52.552;13.434;2023-05-07T05:40:36;7.27;;;6.43;;
13588;SDS011;6865;52.552;13.434;2023-05-07T05:43:02;9.87;;;6.80;;
13588;SDS011;6865;52.552;13.434;2023-05-07T05:45:29;7.90;;;6.77;;
13588;SDS011;6865;52.552;13.434;2023-05-07T05:47:56;7.87;;;6.57;;
13588;SDS011;6865;52.552;13.434;2023-05-07T05:50:23;9.40;;;6.60;;
13588;SDS011;6865;52.552;13.434;2023-05-07T05:52:49;8.20;;;6.87;;
13588;SDS011;6865;52.552;13.434;2023-05-07T05:55:17;8.73;;;6.93;;
13588;SDS011;6865;52.552;13.434;2023-05-07T05:57:43;8.60;;;6.37;;
13588;SDS011;6865;52.552;13.434;2023-05-07T06:00:10;8.37;;;6.50;;
13588;SDS011;6865;52.552;13.434;2023-05-07T06:02:38;8.77;;;6.47;;
13588;SDS011;6865;52.552;13.434;2023-05-07T06:05:05;8.50;;;6.30;;
13588;SDS011;6865;52.552;13.434;2023-05-07T06:07:31;7.70;;;6.13;;
13588;SDS011;6865;52.552;13.434;2023-05-07T06:09:58;7.30;;;6.03;;
13588;SDS011;6865;52.552;13.434;2023-05-07T06:12:25;7.70;;;6.67;;
13588;SDS011;6865;52.552;13.434;2023-05-07T06:14:51;7.57;;;6.23;;
13588;SDS011;6865;52.552;13.434;2023-05-07T06:17:18;7.43;;;6.20;;
13588;SDS011;6865;52.552;13.434;2023-05-07T06:19:47;8.60;;;6.37;;
13588;SDS011;6865;52.552;13.434;2023-05-07T06:22:13;7.80;;;6.30;;
13588;SDS011;6865;52.552;13.434;2023-05-07T06:24:40;7.33;;;6.20;;
13588;SDS011;6865;52.552;13.434;2023-05-07T06:27:06;8.90;;;6.40;;
13588;SDS011;6865;52.552;13.434;2023-05-07T06:29:33;7.83;;;6.43;;
13588;SDS011;6865;52.552;13.434;2023-05-07T06:32:06;7.00;;;6.30;;
13588;SDS011;6865;52.552;13.434;2023-05-07T06:34:34;7.60;;;6.20;;
13588;SDS011;6865;52.552;13.434;2023-05-07T06:37:01;7.23;;;5.90;;
13588;SDS011;6865;52.552;13.434;2023-05-07T06:39:28;7.73;;;5.87;;
13588;SDS011;6865;52.552;13.434;2023-05-07T06:41:55;6.97;;;5.87;;
13588;SDS011;6865;52.552;13.434;2023-05-07T06:44:21;10.00;;;6.43;;
13588;SDS011;6865;52.552;13.434;2023-05-07T06:46:48;10.17;;;6.20;;
13588;SDS011;6865;52.552;13.434;2023-05-07T06:49:15;6.27;;;5.67;;
13588;SDS011;6865;52.552;13.434;2023-05-07T06:51:42;7.57;;;5.93;;
13588;SDS011;6865;52.552;13.434;2023-05-07T06:54:08;6.80;;;5.63;;
13588;SDS011;6865;52.552;13.434;2023-05-07T06:56:35;8.10;;;5.63;;
13588;SDS011;6865;52.552;13.434;2023-05-07T06:59:02;8.23;;;5.37;;
13588;SDS011;6865;52.552;13.434;2023-05-07T07:01:29;6.10;;;5.20;;
13588;SDS011;6865;52.552;13.434;2023-05-07T07:03:56;7.60;;;4.90;;
13588;SDS011;6865;52.552;13.434;2023-05-07T07:06:22;5.50;;;5.00;;
13588;SDS011;6865;52.552;13.434;2023-05-07T07:08:49;6.07;;;5.03;;
13588;SDS011;6865;52.552;13.434;2023-05-07T07:11:16;7.60;;;5.00;;
13588;SDS011;6865;52.552;13.434;2023-05-07T07:13:42;5.27;;;4.50;;
13588;SDS011;6865;52.552;13.434;2023-05-07T07:16:09;5.37;;;4.87;;
13588;SDS011;6865;52.552;13.434;2023-05-07T07:18:36;10.77;;;5.10;;
13588;SDS011;6865;52.552;13.434;2023-05-07T07:21:03;6.60;;;4.80;;
13588;SDS011;6865;52.552;13.434;2023-05-07T07:23:29;4.73;;;4.27;;
13588;SDS011;6865;52.552;13.434;2023-05-07T07:25:56;5.63;;;4.60;;
13588;SDS011;6865;52.552;13.434;2023-05-07T07:28:26;7.67;;;4.80;;
13588;SDS011;6865;52.552;13.434;2023-05-07T07:30:53;6.30;;;4.73;;
13588;SDS011;6865;52.552;13.434;2023-05-07T07:33:19;5.50;;;4.30;;
13588;SDS011;6865;52.552;13.434;2023-05-07T07:35:52;5.13;;;4.53;;
13588;SDS011;6865;52.552;13.434;2023-05-07T07:38:19;5.00;;;4.33;;
13588;SDS011;6865;52.552;13.434;2023-05-07T07:40:47;6.83;;;4.93;;
13588;SDS011;6865;52.552;13.434;2023-05-07T07:43:13;5.67;;;4.23;;
13588;SDS011;6865;52.552;13.434;2023-05-07T07:45:40;6.13;;;3.73;;
13588;SDS011;6865;52.552;13.434;2023-05-07T07:48:06;4.53;;;3.90;;
13588;SDS011;6865;52.552;13.434;2023-05-07T07:50:33;4.70;;;4.00;;
13588;SDS011;6865;52.552;13.434;2023-05-07T07:53:11;4.00;;;3.07;;
13588;SDS011;6865;52.552;13.434;2023-05-07T07:55:38;3.90;;;3.10;;
13588;SDS011;6865;52.552;13.434;2023-05-07T07:58:06;3.80;;;2.97;;
13588;SDS011;6865;52.552;13.434;2023-05-07T08:00:32;4.37;;;3.40;;
13588;SDS011;6865;52.552;13.434;2023-05-07T08:02:59;3.63;;;3.33;;
13588;SDS011;6865;52.552;13.434;2023-05-07T08:05:27;4.10;;;3.57;;
13588;SDS011;6865;52.552;13.434;2023-05-07T08:07:54;5.27;;;3.27;;
13588;SDS011;6865;52.552;13.434;2023-05-07T08:10:21;4.00;;;3.47;;
13588;SDS011;6865;52.552;13.434;2023-05-07T08:12:48;6.07;;;3.07;;
13588;SDS011;6865;52.552;13.434;2023-05-07T08:15:16;7.40;;;3.30;;
13588;SDS011;6865;52.552;13.434;2023-05-07T08:17:43;4.73;;;3.10;;
13588;SDS011;6865;52.552;13.434;2023-05-07T08:20:10;5.47;;;3.40;;
13588;SDS011;6865;52.552;13.434;2023-05-07T08:22:37;5.47;;;2.80;;
13588;SDS011;6865;52.552;13.434;2023-05-07T08:25:04;6.37;;;3.00;;
13588;SDS011;6865;52.552;13.434;2023-05-07T08:27:31;3.67;;;3.00;;
13588;SDS011;6865;52.552;13.434;2023-05-07T08:29:57;4.57;;;3.17;;
13588;SDS011;6865;52.552;13.434;2023-05-07T08:32:24;3.13;;;2.70;;
13588;SDS011;6865;52.552;13.434;2023-05-07T08:34:50;6.37;;;3.23;;
13588;SDS011;6865;52.552;13.434;2023-05-07T08:37:18;4.63;;;3.10;;
13588;SDS011;6865;52.552;13.434;2023-05-07T08:39:44;3.57;;;2.97;;
13588;SDS011;6865;52.552;13.434;2023-05-07T08:42:11;3.40;;;2.80;;
13588;SDS011;6865;52.552;13.434;2023-05-07T08:44:41;3.27;;;2.73;;
13588;SDS011;6865;52.552;13.434;2023-05-07T08:47:12;3.20;;;2.80;;
13588;SDS011;6865;52.552;13.434;2023-05-07T08:49:39;4.70;;;3.03;;
13588;SDS011;6865;52.552;13.434;2023-05-07T08:52:06;4.67;;;3.20;;
13588;SDS011;6865;52.552;13.434;2023-05-07T08:54:36;4.40;;;3.00;;
13588;SDS011;6865;52.552;13.434;2023-05-07T08:57:03;6.00;;;3.10;;
13588;SDS011;6865;52.552;13.434;2023-05-07T08:59:30;3.20;;;2.90;;
13588;SDS011;6865;52.552;13.434;2023-05-07T09:01:57;4.03;;;2.87;;
13588;SDS011;6865;52.552;13.434;2023-05-07T09:04:24;3.87;;;2.53;;
13588;SDS011;6865;52.552;13.434;2023-05-07T09:06:53;5.03;;;2.97;;
13588;SDS011;6865;52.552;13.434;2023-05-07T09:09:21;5.00;;;2.63;;
13588;SDS011;6865;52.552;13.434;2023-05-07T09:11:48;3.63;;;2.63;;
13588;SDS011;6865;52.552;13.434;2023-05-07T09:14:22;3.13;;;2.67;;
13588;SDS011;6865;52.552;13.434;2023-05-07T09:16:49;5.43;;;2.80;;
13588;SDS011;6865;52.552;13.434;2023-05-07T09:19:22;3.50;;;2.93;;
13588;SDS011;6865;52.552;13.434;2023-05-07T09:21:57;3.60;;;2.50;;
13588;SDS011;6865;52.552;13.434;2023-05-07T09:24:28;5.10;;;2.60;;
13588;SDS011;6865;52.552;13.434;2023-05-07T09:27:00;3.80;;;2.80;;
13588;SDS011;6865;52.552;13.434;2023-05-07T09:29:28;3.30;;;2.80;;
13588;SDS011;6865;52.552;13.434;2023-05-07T09:31:56;3.37;;;2.60;;
13588;SDS011;6865;52.552;13.434;2023-05-07T09:34:23;3.73;;;2.77;;
13588;SDS011;6865;52.552;13.434;2023-05-07T09:36:50;4.03;;;2.83;;
13588;SDS011;6865;52.552;13.434;2023-05-07T09:39:16;3.20;;;2.90;;
13588;SDS011;6865;52.552;13.434;2023-05-07T09:41:44;4.90;;;2.37;;
13588;SDS011;6865;52.552;13.434;2023-05-07T09:44:12;3.77;;;2.40;;
13588;SDS011;6865;52.552;13.434;2023-05-07T09:46:42;6.83;;;2.60;;
13588;SDS011;6865;52.552;13.434;2023-05-07T09:49:11;4.23;;;2.50;;
13588;SDS011;6865;52.552;13.434;2023-05-07T09:51:50;2.90;;;2.30;;
13588;SDS011;6865;52.552;13.434;2023-05-07T09:54:18;2.87;;;2.30;;
13588;SDS011;6865;52.552;13.434;2023-05-07T09:56:45;2.67;;;2.13;;
13588;SDS011;6865;52.552;13.434;2023-05-07T09:59:14;2.67;;;2.40;;
13588;SDS011;6865;52.552;13.434;2023-05-07T10:01:43;3.10;;;2.43;;
13588;SDS011;6865;52.552;13.434;2023-05-07T10:04:10;3.40;;;2.50;;
13588;SDS011;6865;52.552;13.434;2023-05-07T10:06:38;4.73;;;2.40;;
13588;SDS011;6865;52.552;13.434;2023-05-07T10:09:05;4.23;;;2.10;;
13588;SDS011;6865;52.552;13.434;2023-05-07T10:11:35;3.20;;;2.03;;
13588;SDS011;6865;52.552;13.434;2023-05-07T10:14:03;4.73;;;2.30;;
13588;SDS011;6865;52.552;13.434;2023-05-07T10:16:32;3.47;;;2.27;;
13588;SDS011;6865;52.552;13.434;2023-05-07T10:19:05;4.33;;;2.40;;
13588;SDS011;6865;52.552;13.434;2023-05-07T10:21:35;3.43;;;2.30;;
13588;SDS011;6865;52.552;13.434;2023-05-07T10:26:36;2.80;;;2.00;;
13588;SDS011;6865;52.552;13.434;2023-05-07T10:29:07;2.10;;;1.90;;
13588;SDS011;6865;52.552;13.434;2023-05-07T10:31:55;2.43;;;1.93;;
13588;SDS011;6865;52.552;13.434;2023-05-07T10:34:37;3.47;;;1.77;;
13588;SDS011;6865;52.552;13.434;2023-05-07T10:37:07;3.27;;;2.40;;
13588;SDS011;6865;52.552;13.434;2023-05-07T10:39:36;2.77;;;1.87;;
13588;SDS011;6865;52.552;13.434;2023-05-07T10:42:07;2.40;;;2.00;;
13588;SDS011;6865;52.552;13.434;2023-05-07T10:44:38;2.90;;;1.90;;
13588;SDS011;6865;52.552;13.434;2023-05-07T10:47:12;5.10;;;2.10;;
13588;SDS011;6865;52.552;13.434;2023-05-07T10:52:17;3.50;;;2.15;;
13588;SDS011;6865;52.552;13.434;2023-05-07T10:54:46;2.87;;;2.30;;
13588;SDS011;6865;52.552;13.434;2023-05-07T10:57:33;5.55;;;2.20;;
13588;SDS011;6865;52.552;13.434;2023-05-07T11:00:02;3.40;;;2.20;;
13588;SDS011;6865;52.552;13.434;2023-05-07T11:03:04;4.70;;;2.27;;
13588;SDS011;6865;52.552;13.434;2023-05-07T11:05:29;2.43;;;2.00;;
13588;SDS011;6865;52.552;13.434;2023-05-07T11:08:01;3.25;;;2.20;;
13588;SDS011;6865;52.552;13.434;2023-05-07T11:14:02;3.38;;;1.75;;
13588;SDS011;6865;52.552;13.434;2023-05-07T11:16:20;2.83;;;2.20;;
13588;SDS011;6865;52.552;13.434;2023-05-07T11:18:52;2.40;;;1.90;;
13588;SDS011;6865;52.552;13.434;2023-05-07T11:21:31;2.40;;;1.90;;
13588;SDS011;6865;52.552;13.434;2023-05-07T11:23:59;2.63;;;1.95;;
13588;SDS011;6865;52.552;13.434;2023-05-07T11:26:28;2.10;;;1.90;;
13588;SDS011;6865;52.552;13.434;2023-05-07T11:28:57;3.57;;;2.10;;
13588;SDS011;6865;52.552;13.434;2023-05-07T11:31:27;3.25;;;2.00;;
13588;SDS011;6865;52.552;13.434;2023-05-07T11:33:55;4.33;;;1.90;;
13588;SDS011;6865;52.552;13.434;2023-05-07T11:36:23;3.97;;;2.03;;
13588;SDS011;6865;52.552;13.434;2023-05-07T11:38:50;2.55;;;1.98;;
13588;SDS011;6865;52.552;13.434;2023-05-07T11:41:17;2.13;;;1.85;;
13588;SDS011;6865;52.552;13.434;2023-05-07T11:43:55;2.60;;;1.80;;
13588;SDS011;6865;52.552;13.434;2023-05-07T11:46:23;2.55;;;1.83;;
13588;SDS011;6865;52.552;13.434;2023-05-07T11:48:50;2.10;;;1.88;;
13588;SDS011;6865;52.552;13.434;2023-05-07T11:51:20;3.17;;;1.77;;
13588;SDS011;6865;52.552;13.434;2023-05-07T11:53:50;4.10;;;1.98;;
13588;SDS011;6865;52.552;13.434;2023-05-07T11:56:18;3.97;;;2.00;;
13588;SDS011;6865;52.552;13.434;2023-05-07T11:58:46;3.00;;;1.88;;
13588;SDS011;6865;52.552;13.434;2023-05-07T12:01:13;2.80;;;2.00;;
13588;SDS011;6865;52.552;13.434;2023-05-07T12:03:42;2.00;;;1.80;;
13588;SDS011;6865;52.552;13.434;2023-05-07T12:06:13;2.15;;;1.83;;
13588;SDS011;6865;52.552;13.434;2023-05-07T12:08:43;2.17;;;1.98;;
13588;SDS011;6865;52.552;13.434;2023-05-07T12:11:21;2.58;;;2.05;;
13588;SDS011;6865;52.552;13.434;2023-05-07T12:13:49;3.15;;;2.13;;
13588;SDS011;6865;52.552;13.434;2023-05-07T12:16:16;4.60;;;1.98;;
13588;SDS011;6865;52.552;13.434;2023-05-07T12:18:44;3.97;;;1.80;;
13588;SDS011;6865;52.552;13.434;2023-05-07T12:21:11;2.73;;;1.90;;
13588;SDS011;6865;52.552;13.434;2023-05-07T12:23:39;2.20;;;1.80;;
13588;SDS011;6865;52.552;13.434;2023-05-07T12:26:06;3.08;;;1.90;;
13588;SDS011;6865;52.552;13.434;2023-05-07T12:28:37;3.55;;;1.98;;
13588;SDS011;6865;52.552;13.434;2023-05-07T12:31:05;2.28;;;1.80;;
13588;SDS011;6865;52.552;13.434;2023-05-07T12:33:33;3.00;;;1.88;;
13588;SDS011;6865;52.552;13.434;2023-05-07T12:36:02;4.07;;;2.08;;
13588;SDS011;6865;52.552;13.434;2023-05-07T12:38:34;3.10;;;2.17;;
13588;SDS011;6865;52.552;13.434;2023-05-07T12:41:02;2.10;;;1.90;;
13588;SDS011;6865;52.552;13.434;2023-05-07T12:43:30;3.08;;;1.80;;
13588;SDS011;6865;52.552;13.434;2023-05-07T12:45:57;2.40;;;1.92;;
13588;SDS011;6865;52.552;13.434;2023-05-07T12:48:26;1.98;;;1.77;;
13588;SDS011;6865;52.552;13.434;2023-05-07T12:50:53;2.95;;;1.80;;
13588;SDS011;6865;52.552;13.434;2023-05-07T12:53:21;2.38;;;1.80;;
13588;SDS011;6865;52.552;13.434;2023-05-07T12:55:51;2.17;;;1.77;;
13588;SDS011;6865;52.552;13.434;2023-05-07T12:58:20;3.40;;;1.77;;
13588;SDS011;6865;52.552;13.434;2023-05-07T13:00:49;3.22;;;2.00;;
13588;SDS011;6865;52.552;13.434;2023-05-07T13:03:30;3.70;;;1.60;;
13588;SDS011;6865;52.552;13.434;2023-05-07T13:05:59;3.00;;;1.92;;
13588;SDS011;6865;52.552;13.434;2023-05-07T13:08:37;1.77;;;1.63;;
13588;SDS011;6865;52.552;13.434;2023-05-07T13:11:07;2.75;;;1.50;;
13588;SDS011;6865;52.552;13.434;2023-05-07T13:13:34;2.35;;;1.83;;
13588;SDS011;6865;52.552;13.434;2023-05-07T13:16:02;1.95;;;1.75;;
13588;SDS011;6865;52.552;13.434;2023-05-07T13:18:30;2.72;;;1.77;;
13588;SDS011;6865;52.552;13.434;2023-05-07T13:20:58;2.13;;;1.80;;
13588;SDS011;6865;52.552;13.434;2023-05-07T13:23:25;2.33;;;1.70;;
13588;SDS011;6865;52.552;13.434;2023-05-07T13:25:53;1.73;;;1.63;;
13588;SDS011;6865;52.552;13.434;2023-05-07T13:28:23;3.92;;;1.90;;
13588;SDS011;6865;52.552;13.434;2023-05-07T13:30:51;1.88;;;1.67;;
13588;SDS011;6865;52.552;13.434;2023-05-07T13:33:18;2.00;;;1.50;;
13588;SDS011;6865;52.552;13.434;2023-05-07T13:35:45;3.08;;;2.05;;
13588;SDS011;6865;52.552;13.434;2023-05-07T13:38:12;2.88;;;1.70;;
13588;SDS011;6865;52.552;13.434;2023-05-07T13:40:38;2.03;;;1.67;;
13588;SDS011;6865;52.552;13.434;2023-05-07T13:43:05;3.33;;;1.58;;
13588;SDS011;6865;52.552;13.434;2023-05-07T13:45:32;2.00;;;1.58;;
13588;SDS011;6865;52.552;13.434;2023-05-07T13:47:59;3.13;;;1.50;;
13588;SDS011;6865;52.552;13.434;2023-05-07T13:50:26;3.85;;;2.05;;
13588;SDS011;6865;52.552;13.434;2023-05-07T13:52:56;2.90;;;1.77;;
13588;SDS011;6865;52.552;13.434;2023-05-07T13:55:23;2.15;;;1.75;;
13588;SDS011;6865;52.552;13.434;2023-05-07T13:57:57;2.00;;;1.80;;
13588;SDS011;6865;52.552;13.434;2023-05-07T14:00:26;2.80;;;2.30;;
13588;SDS011;6865;52.552;13.434;2023-05-07T14:02:54;2.20;;;1.90;;
13588;SDS011;6865;52.552;13.434;2023-05-07T14:05:22;4.60;;;1.70;;
13588;SDS011;6865;52.552;13.434;2023-05-07T14:07:54;4.43;;;1.90;;
13588;SDS011;6865;52.552;13.434;2023-05-07T14:10:23;5.75;;;2.08;;
13588;SDS011;6865;52.552;13.434;2023-05-07T14:12:50;5.03;;;1.92;;
13588;SDS011;6865;52.552;13.434;2023-05-07T14:15:19;3.28;;;1.70;;
13588;SDS011;6865;52.552;13.434;2023-05-07T14:17:45;2.50;;;1.90;;
13588;SDS011;6865;52.552;13.434;2023-05-07T14:20:13;2.00;;;1.80;;
13588;SDS011;6865;52.552;13.434;2023-05-07T14:22:40;3.30;;;1.90;;
13588;SDS011;6865;52.552;13.434;2023-05-07T14:25:07;2.30;;;1.80;;
13588;SDS011;6865;52.552;13.434;2023-05-07T14:27:36;1.90;;;1.67;;
13588;SDS011;6865;52.552;13.434;2023-05-07T14:30:03;3.15;;;1.77;;
13588;SDS011;6865;52.552;13.434;2023-05-07T14:32:29;2.55;;;1.80;;
13588;SDS011;6865;52.552;13.434;2023-05-07T14:34:56;3.60;;;1.92;;
13588;SDS011;6865;52.552;13.434;2023-05-07T14:37:23;4.00;;;1.83;;
13588;SDS011;6865;52.552;13.434;2023-05-07T14:39:50;2.45;;;1.95;;
13588;SDS011;6865;52.552;13.434;2023-05-07T14:42:17;2.65;;;2.00;;
13588;SDS011;6865;52.552;13.434;2023-05-07T14:44:44;3.90;;;1.70;;
13588;SDS011;6865;52.552;13.434;2023-05-07T14:47:12;2.00;;;1.60;;
13588;SDS011;6865;52.552;13.434;2023-05-07T14:49:44;2.38;;;1.60;;
13588;SDS011;6865;52.552;13.434;2023-05-07T14:52:10;5.50;;;2.00;;
13588;SDS011;6865;52.552;13.434;2023-05-07T14:54:38;3.22;;;1.80;;
13588;SDS011;6865;52.552;13.434;2023-05-07T14:57:05;1.70;;;1.58;;
13588;SDS011;6865;52.552;13.434;2023-05-07T14:59:33;4.28;;;1.90;;